createdAt,value
2019-01-19T00:00:48.351Z,2.37
2019-01-19T00:01:48.337Z,2.38
2019-01-19T00:02:48.329Z,2.33
2019-01-19T00:03:48.318Z,2.30
2019-01-19T00:04:48.315Z,2.28
2019-01-19T00:05:48.302Z,2.30
2019-01-19T00:06:49.043Z,2.23
2019-01-19T00:07:48.275Z,2.19
2019-01-19T00:08:48.266Z,2.20
2019-01-19T00:09:48.277Z,2.17
2019-01-19T00:10:48.243Z,2.16
2019-01-19T00:11:48.235Z,2.20
2019-01-19T00:12:48.223Z,2.19
2019-01-19T00:13:48.210Z,2.20
2019-01-19T00:14:48.242Z,2.19
2019-01-19T00:15:48.192Z,2.15
2019-01-19T00:16:48.225Z,2.19
2019-01-19T00:17:48.171Z,2.06
2019-01-19T00:18:48.157Z,2.02
2019-01-19T00:19:48.151Z,2.10
2019-01-19T00:20:48.149Z,2.10
2019-01-19T00:21:48.130Z,1.99
2019-01-19T00:22:48.119Z,2.04
2019-01-19T00:23:48.106Z,2.12
2019-01-19T00:24:48.153Z,2.15
2019-01-19T00:25:48.097Z,2.09
2019-01-19T00:26:48.084Z,2.09
2019-01-19T00:27:48.072Z,2.08
2019-01-19T00:28:48.056Z,2.10
2019-01-19T00:29:48.050Z,2.20
2019-01-19T00:30:48.053Z,2.16
2019-01-19T00:31:48.030Z,2.23
2019-01-19T00:32:48.027Z,2.20
2019-01-19T00:33:48.015Z,2.15
2019-01-19T00:34:48.012Z,2.16
2019-01-19T00:35:47.993Z,2.20
2019-01-19T00:36:47.972Z,2.16
2019-01-19T00:37:47.960Z,2.12
2019-01-19T00:38:47.953Z,2.10
2019-01-19T00:39:47.944Z,2.01
2019-01-19T00:40:47.940Z,2.10
2019-01-19T00:41:47.920Z,2.09
2019-01-19T00:42:47.910Z,2.10
2019-01-19T00:43:47.898Z,2.09
2019-01-19T00:44:47.891Z,2.10
2019-01-19T00:45:47.889Z,2.01
2019-01-19T00:46:47.865Z,2.06
2019-01-19T00:47:47.858Z,2.08
2019-01-19T00:48:47.847Z,1.94
2019-01-19T00:49:47.838Z,2.09
2019-01-19T00:50:47.854Z,1.94
2019-01-19T00:51:47.815Z,2.01
2019-01-19T00:52:47.806Z,2.01
2019-01-19T00:53:47.813Z,2.02
2019-01-19T00:54:47.783Z,1.90
2019-01-19T00:55:47.787Z,1.97
2019-01-19T00:56:47.782Z,2.04
2019-01-19T00:57:47.759Z,1.97
2019-01-19T00:58:47.753Z,2.06
2019-01-19T00:59:47.735Z,2.08
2019-01-19T01:00:47.725Z,2.02
2019-01-19T01:01:47.747Z,2.02
2019-01-19T01:02:47.705Z,2.10
2019-01-19T01:03:47.700Z,2.02
2019-01-19T01:04:47.683Z,2.06
2019-01-19T01:05:47.671Z,2.12
2019-01-19T01:06:47.680Z,2.01
2019-01-19T01:07:47.650Z,2.06
2019-01-19T01:08:47.639Z,2.12
2019-01-19T01:09:47.628Z,2.13
2019-01-19T01:10:47.620Z,2.06
2019-01-19T01:11:47.624Z,2.06
2019-01-19T01:12:47.604Z,2.02
2019-01-19T01:13:47.608Z,2.12
2019-01-19T01:14:47.579Z,2.01
2019-01-19T01:15:47.567Z,2.09
2019-01-19T01:16:47.574Z,2.02
2019-01-19T01:17:47.544Z,2.13
2019-01-19T01:18:47.538Z,2.06
2019-01-19T01:19:47.530Z,2.04
2019-01-19T01:20:47.519Z,2.15
2019-01-19T01:21:47.513Z,2.13
2019-01-19T01:22:47.509Z,2.22
2019-01-19T01:23:47.490Z,2.16
2019-01-19T01:24:47.473Z,2.09
2019-01-19T01:25:47.459Z,2.16
2019-01-19T01:26:47.481Z,2.17
2019-01-19T01:27:47.438Z,2.16
2019-01-19T01:28:47.432Z,2.22
2019-01-19T01:29:47.417Z,2.23
2019-01-19T01:30:47.409Z,2.26
2019-01-19T01:31:47.397Z,2.33
2019-01-19T01:32:47.396Z,2.33
2019-01-19T01:33:47.376Z,2.31
2019-01-19T01:34:47.365Z,2.35
2019-01-19T01:35:47.356Z,2.31
2019-01-19T01:36:47.352Z,2.33
2019-01-19T01:37:47.357Z,2.33
2019-01-19T01:38:47.323Z,2.30
2019-01-19T01:39:47.319Z,2.30
2019-01-19T01:40:47.302Z,2.28
2019-01-19T01:41:47.307Z,2.27
2019-01-19T01:42:47.294Z,2.33
2019-01-19T01:43:47.281Z,2.30
2019-01-19T01:44:47.270Z,2.30
2019-01-19T01:45:47.250Z,2.28
2019-01-19T01:46:47.237Z,2.31
2019-01-19T01:47:47.242Z,2.23
2019-01-19T01:48:47.219Z,2.27
2019-01-19T01:49:47.213Z,2.28
2019-01-19T01:50:47.198Z,2.33
2019-01-19T01:51:47.185Z,2.22
2019-01-19T01:52:47.190Z,2.31
2019-01-19T01:53:47.172Z,2.22
2019-01-19T01:54:47.154Z,2.33
2019-01-19T01:55:47.146Z,2.30
2019-01-19T01:56:47.136Z,2.30
2019-01-19T01:57:47.135Z,2.23
2019-01-19T01:58:47.113Z,2.22
2019-01-19T01:59:47.110Z,2.27
2019-01-19T02:00:47.093Z,2.19
2019-01-19T02:01:47.124Z,2.27
2019-01-19T02:02:47.105Z,2.30
2019-01-19T02:03:47.062Z,2.28
2019-01-19T02:04:47.054Z,2.28
2019-01-19T02:05:47.043Z,2.30
2019-01-19T02:06:47.058Z,2.26
2019-01-19T02:07:47.037Z,2.23
2019-01-19T02:08:47.013Z,2.23
2019-01-19T02:09:48.651Z,2.31
2019-01-19T02:10:46.990Z,2.33
2019-01-19T02:11:46.977Z,2.28
2019-01-19T02:12:47.018Z,2.33
2019-01-19T02:13:46.957Z,2.35
2019-01-19T02:14:46.946Z,2.35
2019-01-19T02:15:46.934Z,2.33
2019-01-19T02:16:46.930Z,2.33
2019-01-19T02:17:46.925Z,2.31
2019-01-19T02:18:46.925Z,2.33
2019-01-19T02:19:46.895Z,2.28
2019-01-19T02:20:46.886Z,2.31
2019-01-19T02:21:46.874Z,2.30
2019-01-19T02:22:46.866Z,2.30
2019-01-19T02:23:46.866Z,2.27
2019-01-19T02:24:46.842Z,2.40
2019-01-19T02:25:46.833Z,2.26
2019-01-19T02:26:46.826Z,2.26
2019-01-19T02:27:46.815Z,2.30
2019-01-19T02:28:46.815Z,2.23
2019-01-19T02:29:46.787Z,2.30
2019-01-19T02:30:46.780Z,2.28
2019-01-19T02:31:46.771Z,2.33
2019-01-19T02:32:46.758Z,2.35
2019-01-19T02:33:46.761Z,2.37
2019-01-19T02:34:46.741Z,2.33
2019-01-19T02:35:48.651Z,2.31
2019-01-19T02:36:46.726Z,2.31
2019-01-19T02:37:46.708Z,2.33
2019-01-19T02:38:47.068Z,2.38
2019-01-19T02:39:46.686Z,2.31
2019-01-19T02:40:46.680Z,2.33
2019-01-19T02:41:46.665Z,2.30
2019-01-19T02:42:46.653Z,2.26
2019-01-19T02:43:46.657Z,2.23
2019-01-19T02:44:46.633Z,2.19
2019-01-19T02:45:46.625Z,2.19
2019-01-19T02:46:46.613Z,2.13
2019-01-19T02:47:46.602Z,2.13
2019-01-19T02:48:46.604Z,2.10
2019-01-19T02:49:47.585Z,2.16
2019-01-19T02:50:46.573Z,2.17
2019-01-19T02:51:46.564Z,2.17
2019-01-19T02:52:46.547Z,2.13
2019-01-19T02:53:46.745Z,2.19
2019-01-19T02:54:46.533Z,2.20
2019-01-19T02:55:46.518Z,2.10
2019-01-19T02:56:46.512Z,2.06
2019-01-19T02:57:46.497Z,2.12
2019-01-19T02:58:46.487Z,2.10
2019-01-19T02:59:46.488Z,2.10
2019-01-19T03:00:46.470Z,2.09
2019-01-19T03:01:46.455Z,2.15
2019-01-19T03:02:46.444Z,2.06
2019-01-19T03:03:46.436Z,2.12
2019-01-19T03:04:46.444Z,1.99
2019-01-19T03:05:46.440Z,2.09
2019-01-19T03:06:46.402Z,1.97
2019-01-19T03:07:46.415Z,1.98
2019-01-19T03:08:46.383Z,1.99
2019-01-19T03:09:46.382Z,1.97
2019-01-19T03:10:46.362Z,1.98
2019-01-19T03:11:46.353Z,1.93
2019-01-19T03:12:46.343Z,1.90
2019-01-19T03:13:46.328Z,1.98
2019-01-19T03:14:46.343Z,1.89
2019-01-19T03:15:46.308Z,1.78
2019-01-19T03:16:46.299Z,1.82
2019-01-19T03:17:46.291Z,1.78
2019-01-19T03:18:46.283Z,1.72
2019-01-19T03:19:46.281Z,1.71
2019-01-19T03:20:46.256Z,1.68
2019-01-19T03:21:46.262Z,1.69
2019-01-19T03:22:46.237Z,1.69
2019-01-19T03:23:46.227Z,1.64
2019-01-19T03:24:46.228Z,1.60
2019-01-19T03:25:46.247Z,1.60
2019-01-19T03:26:46.196Z,1.46
2019-01-19T03:27:46.182Z,1.39
2019-01-19T03:28:46.171Z,1.37
2019-01-19T03:29:46.175Z,1.42
2019-01-19T03:30:46.153Z,1.46
2019-01-19T03:31:46.169Z,1.47
2019-01-19T03:32:46.132Z,1.51
2019-01-19T03:33:46.122Z,1.40
2019-01-19T03:34:46.123Z,1.52
2019-01-19T03:35:46.100Z,1.44
2019-01-19T03:36:46.093Z,1.39
2019-01-19T03:37:46.082Z,1.47
2019-01-19T03:38:46.073Z,1.42
2019-01-19T03:39:46.075Z,1.37
2019-01-19T03:40:46.050Z,1.46
2019-01-19T03:41:46.040Z,1.43
2019-01-19T03:42:46.027Z,1.50
2019-01-19T03:43:46.020Z,1.40
2019-01-19T03:44:46.005Z,1.32
2019-01-19T03:45:46.015Z,1.37
2019-01-19T03:46:45.986Z,1.39
2019-01-19T03:47:45.987Z,1.40
2019-01-19T03:48:45.972Z,1.33
2019-01-19T03:49:45.955Z,1.36
2019-01-19T03:50:45.957Z,1.34
2019-01-19T03:51:45.942Z,1.37
2019-01-19T03:52:45.925Z,1.46
2019-01-19T03:53:45.924Z,1.46
2019-01-19T03:54:45.924Z,1.43
2019-01-19T03:55:45.902Z,1.50
2019-01-19T03:56:45.879Z,1.46
2019-01-19T03:57:45.870Z,1.51
2019-01-19T03:58:45.863Z,1.39
2019-01-19T03:59:45.851Z,1.34
2019-01-19T04:00:45.849Z,1.28
2019-01-19T04:01:45.828Z,1.36
2019-01-19T04:02:45.817Z,1.37
2019-01-19T04:03:45.806Z,1.42
2019-01-19T04:04:45.813Z,1.43
2019-01-19T04:05:45.805Z,1.52
2019-01-19T04:06:45.779Z,1.57
2019-01-19T04:07:45.767Z,1.57
2019-01-19T04:08:45.756Z,1.61
2019-01-19T04:09:45.745Z,1.60
2019-01-19T04:10:45.761Z,1.60
2019-01-19T04:11:45.738Z,1.68
2019-01-19T04:12:45.713Z,1.76
2019-01-19T04:13:45.708Z,1.83
2019-01-19T04:14:45.691Z,1.73
2019-01-19T04:15:45.690Z,1.75
2019-01-19T04:16:45.700Z,1.71
2019-01-19T04:17:45.668Z,1.79
2019-01-19T04:18:45.648Z,1.76
2019-01-19T04:19:45.659Z,1.80
2019-01-19T04:20:45.630Z,1.85
2019-01-19T04:21:45.636Z,1.83
2019-01-19T04:22:45.615Z,1.85
2019-01-19T04:23:45.599Z,1.83
2019-01-19T04:24:45.587Z,1.90
2019-01-19T04:25:45.578Z,1.91
2019-01-19T04:26:45.606Z,1.82
2019-01-19T04:27:45.553Z,1.93
2019-01-19T04:28:45.559Z,1.94
2019-01-19T04:29:45.537Z,1.94
2019-01-19T04:30:45.555Z,1.99
2019-01-19T04:31:45.532Z,1.97
2019-01-19T04:32:45.507Z,2.10
2019-01-19T04:33:45.502Z,2.02
2019-01-19T04:34:45.486Z,1.91
2019-01-19T04:35:45.475Z,1.99
2019-01-19T04:36:45.474Z,1.98
2019-01-19T04:37:45.454Z,2.02
2019-01-19T04:38:45.444Z,2.12
2019-01-19T04:39:45.433Z,2.12
2019-01-19T04:40:45.418Z,2.13
2019-01-19T04:41:45.438Z,2.06
2019-01-19T04:42:45.400Z,2.08
2019-01-19T04:43:45.388Z,2.13
2019-01-19T04:44:45.389Z,2.13
2019-01-19T04:45:45.384Z,2.16
2019-01-19T04:46:45.358Z,2.17
2019-01-19T04:47:45.366Z,2.19
2019-01-19T04:48:45.338Z,2.13
2019-01-19T04:49:45.327Z,2.19
2019-01-19T04:50:45.330Z,2.20
2019-01-19T04:51:45.313Z,2.19
2019-01-19T04:52:45.313Z,2.15
2019-01-19T04:53:45.294Z,2.16
2019-01-19T04:54:45.276Z,2.17
2019-01-19T04:55:45.267Z,2.20
2019-01-19T04:56:45.254Z,2.19
2019-01-19T04:57:45.256Z,2.15
2019-01-19T04:58:45.231Z,2.16
2019-01-19T04:59:45.252Z,2.16
2019-01-19T05:00:45.212Z,2.10
2019-01-19T05:01:45.200Z,2.13
2019-01-19T05:02:45.205Z,2.10
2019-01-19T05:03:45.182Z,2.02
2019-01-19T05:04:45.171Z,1.98
2019-01-19T05:05:45.158Z,1.94
2019-01-19T05:06:45.147Z,1.97
2019-01-19T05:07:45.148Z,1.99
2019-01-19T05:08:45.128Z,1.99
2019-01-19T05:09:45.126Z,1.99
2019-01-19T05:10:45.108Z,2.02
2019-01-19T05:11:45.096Z,1.99
2019-01-19T05:12:45.097Z,1.98
2019-01-19T05:13:45.076Z,1.94
2019-01-19T05:14:45.068Z,1.93
2019-01-19T05:15:45.061Z,1.93
2019-01-19T05:16:45.057Z,1.94
2019-01-19T05:17:45.048Z,1.83
2019-01-19T05:18:45.026Z,1.76
2019-01-19T05:19:45.014Z,1.69
2019-01-19T05:20:45.003Z,1.79
2019-01-19T05:21:44.995Z,1.68
2019-01-19T05:22:45.002Z,1.61
2019-01-19T05:23:44.978Z,1.62
2019-01-19T05:24:44.961Z,1.50
2019-01-19T05:25:44.947Z,1.44
2019-01-19T05:26:44.943Z,1.43
2019-01-19T05:27:44.944Z,1.36
2019-01-19T05:28:44.920Z,1.39
2019-01-19T05:29:44.913Z,1.39
2019-01-19T05:30:44.898Z,1.37
2019-01-19T05:31:44.890Z,1.29
2019-01-19T05:32:44.883Z,1.26
2019-01-19T05:33:44.895Z,1.21
2019-01-19T05:34:44.854Z,1.21
2019-01-19T05:35:44.848Z,1.24
2019-01-19T05:36:44.834Z,1.16
2019-01-19T05:37:44.848Z,1.14
2019-01-19T05:38:44.834Z,1.14
2019-01-19T05:39:44.803Z,1.08
2019-01-19T05:40:44.789Z,1.07
2019-01-19T05:41:44.782Z,1.06
2019-01-19T05:42:44.774Z,1.07
2019-01-19T05:43:44.773Z,1.03
2019-01-19T05:44:44.936Z,1.07
2019-01-19T05:45:44.744Z,0.97
2019-01-19T05:46:44.728Z,0.97
2019-01-19T05:47:44.718Z,0.96
2019-01-19T05:48:44.722Z,1.03
2019-01-19T05:49:44.696Z,1.04
2019-01-19T05:50:44.688Z,0.98
2019-01-19T05:51:44.676Z,1.00
2019-01-19T05:52:44.666Z,0.89
2019-01-19T05:53:44.664Z,0.96
2019-01-19T05:54:44.642Z,0.98
2019-01-19T05:55:44.632Z,0.86
2019-01-19T05:56:44.631Z,0.96
2019-01-19T05:57:44.617Z,0.97
2019-01-19T05:58:44.617Z,0.90
2019-01-19T05:59:44.588Z,0.94
2019-01-19T06:00:44.577Z,0.88
2019-01-19T06:01:44.573Z,0.85
2019-01-19T06:02:44.564Z,0.94
2019-01-19T06:03:44.558Z,0.85
2019-01-19T06:04:44.537Z,0.96
2019-01-19T06:05:44.528Z,0.82
2019-01-19T06:06:46.989Z,0.80
2019-01-19T06:07:44.507Z,0.80
2019-01-19T06:08:44.513Z,0.76
2019-01-19T06:09:44.489Z,0.75
2019-01-19T06:10:44.478Z,0.78
2019-01-19T06:11:44.462Z,0.72
2019-01-19T06:12:44.450Z,0.70
2019-01-19T06:13:44.454Z,0.76
2019-01-19T06:14:44.435Z,0.76
2019-01-19T06:15:44.422Z,0.70
2019-01-19T06:16:44.423Z,0.80
2019-01-19T06:17:44.403Z,0.76
2019-01-19T06:18:44.403Z,0.78
2019-01-19T06:19:44.383Z,0.75
2019-01-19T06:20:44.370Z,0.78
2019-01-19T06:21:44.392Z,0.85
2019-01-19T06:22:44.371Z,0.86
2019-01-19T06:23:44.352Z,0.80
2019-01-19T06:24:44.341Z,0.85
2019-01-19T06:25:44.336Z,0.85
2019-01-19T06:26:44.334Z,0.85
2019-01-19T06:27:44.303Z,0.92
2019-01-19T06:28:44.303Z,0.94
2019-01-19T06:29:44.279Z,0.96
2019-01-19T06:30:44.273Z,1.00
2019-01-19T06:31:44.266Z,0.97
2019-01-19T06:32:44.255Z,1.07
2019-01-19T06:33:44.250Z,1.03
2019-01-19T06:34:44.222Z,1.07
2019-01-19T06:35:44.209Z,1.07
2019-01-19T06:36:44.203Z,1.14
2019-01-19T06:37:44.199Z,1.21
2019-01-19T06:38:44.194Z,1.16
2019-01-19T06:39:44.168Z,1.18
2019-01-19T06:40:44.157Z,1.15
2019-01-19T06:41:44.147Z,1.26
2019-01-19T06:42:44.138Z,1.28
2019-01-19T06:43:44.138Z,1.33
2019-01-19T06:44:44.120Z,1.37
2019-01-19T06:45:44.103Z,1.29
2019-01-19T06:46:44.097Z,1.40
2019-01-19T06:47:44.085Z,1.28
2019-01-19T06:48:44.114Z,1.34
2019-01-19T06:49:44.068Z,1.34
2019-01-19T06:50:44.054Z,1.34
2019-01-19T06:51:44.041Z,1.40
2019-01-19T06:52:44.030Z,1.32
2019-01-19T06:53:44.025Z,1.33
2019-01-19T06:54:44.021Z,1.32
2019-01-19T06:55:44.002Z,1.34
2019-01-19T06:56:43.988Z,1.33
2019-01-19T06:57:43.977Z,1.34
2019-01-19T06:58:43.969Z,1.34
2019-01-19T06:59:43.967Z,1.37
2019-01-19T07:00:43.945Z,1.44
2019-01-19T07:01:43.958Z,1.40
2019-01-19T07:02:43.929Z,1.37
2019-01-19T07:03:43.914Z,1.36
2019-01-19T07:04:43.927Z,1.43
2019-01-19T07:05:43.893Z,1.36
2019-01-19T07:06:43.885Z,1.34
2019-01-19T07:07:43.872Z,1.32
2019-01-19T07:08:43.863Z,1.22
2019-01-19T07:09:43.860Z,1.24
2019-01-19T07:10:43.845Z,1.18
2019-01-19T07:11:43.831Z,1.22
2019-01-19T07:12:43.822Z,1.21
2019-01-19T07:13:43.821Z,1.21
2019-01-19T07:14:43.810Z,1.16
2019-01-19T07:15:43.788Z,1.26
2019-01-19T07:16:43.787Z,1.26
2019-01-19T07:17:43.767Z,1.36
2019-01-19T07:18:43.755Z,1.37
2019-01-19T07:19:43.758Z,1.34
2019-01-19T07:20:43.739Z,1.33
2019-01-19T07:21:43.724Z,1.14
2019-01-19T07:22:43.718Z,1.25
2019-01-19T07:23:43.707Z,1.16
2019-01-19T07:24:43.707Z,1.14
2019-01-19T07:25:43.689Z,1.18
2019-01-19T07:26:43.671Z,1.03
2019-01-19T07:27:43.658Z,1.07
2019-01-19T07:28:43.650Z,1.04
2019-01-19T07:29:43.653Z,1.01
2019-01-19T07:30:43.633Z,1.03
2019-01-19T07:31:43.616Z,1.04
2019-01-19T07:32:43.664Z,0.96
2019-01-19T07:33:43.604Z,1.03
2019-01-19T07:34:43.598Z,0.94
2019-01-19T07:35:43.579Z,0.97
2019-01-19T07:36:43.577Z,0.97
2019-01-19T07:37:43.578Z,1.08
2019-01-19T07:38:43.543Z,1.06
2019-01-19T07:39:43.544Z,1.10
2019-01-19T07:40:43.523Z,1.19
2019-01-19T07:41:43.514Z,1.28
2019-01-19T07:42:43.514Z,1.37
2019-01-19T07:43:43.493Z,1.43
2019-01-19T07:44:43.491Z,1.57
2019-01-19T07:45:43.473Z,1.68
2019-01-19T07:46:43.458Z,1.76
2019-01-19T07:47:43.453Z,1.76
2019-01-19T07:48:43.440Z,1.85
2019-01-19T07:49:43.445Z,1.94
2019-01-19T07:50:43.419Z,1.85
2019-01-19T07:51:43.406Z,1.90
2019-01-19T07:52:43.399Z,1.90
2019-01-19T07:53:43.385Z,1.78
2019-01-19T07:54:43.401Z,1.89
2019-01-19T07:55:43.370Z,1.78
2019-01-19T07:56:43.375Z,1.83
2019-01-19T07:57:43.347Z,1.82
2019-01-19T07:58:43.363Z,1.79
2019-01-19T07:59:43.335Z,1.82
2019-01-19T08:00:43.323Z,1.75
2019-01-19T08:01:43.303Z,1.79
2019-01-19T08:02:43.289Z,1.68
2019-01-19T08:03:43.285Z,1.68
2019-01-19T08:04:43.300Z,1.62
2019-01-19T08:05:43.265Z,1.65
2019-01-19T08:06:43.248Z,1.64
2019-01-19T08:07:43.235Z,1.64
2019-01-19T08:08:43.226Z,1.71
2019-01-19T08:09:43.285Z,1.69
2019-01-19T08:10:43.207Z,1.68
2019-01-19T08:11:43.197Z,1.65
2019-01-19T08:12:43.187Z,1.75
2019-01-19T08:13:43.174Z,1.78
2019-01-19T08:14:43.164Z,1.79
2019-01-19T08:15:43.241Z,1.94
2019-01-19T08:16:43.143Z,2.04
2019-01-19T08:17:43.149Z,2.01
2019-01-19T08:18:43.125Z,2.13
2019-01-19T08:19:43.112Z,2.19
2019-01-19T08:20:43.127Z,2.33
2019-01-19T08:21:43.091Z,2.37
2019-01-19T08:22:43.083Z,2.48
2019-01-19T08:23:43.068Z,2.58
2019-01-19T08:24:43.059Z,2.69
2019-01-19T08:25:43.060Z,2.74
2019-01-19T08:26:43.037Z,2.82
2019-01-19T08:27:43.032Z,2.91
2019-01-19T08:28:43.022Z,2.95
2019-01-19T08:29:43.004Z,2.94
2019-01-19T08:30:43.005Z,3.09
2019-01-19T08:31:43.035Z,3.12
2019-01-19T08:32:42.982Z,3.27
2019-01-19T08:33:42.966Z,3.52
2019-01-19T08:34:42.955Z,3.72
2019-01-19T08:35:42.966Z,3.86
2019-01-19T08:36:42.935Z,3.88
2019-01-19T08:37:42.939Z,4.00
2019-01-19T08:38:42.975Z,3.98
2019-01-19T08:39:42.907Z,3.90
2019-01-19T08:40:42.900Z,3.85
2019-01-19T08:41:42.885Z,3.89
2019-01-19T08:42:42.872Z,3.86
2019-01-19T08:43:42.858Z,4.06
2019-01-19T08:44:42.856Z,4.32
2019-01-19T08:45:42.868Z,4.55
2019-01-19T08:46:42.831Z,4.76
2019-01-19T08:47:42.818Z,4.70
2019-01-19T08:48:42.807Z,4.65
2019-01-19T08:49:42.797Z,4.47
2019-01-19T08:50:42.804Z,4.51
2019-01-19T08:51:42.792Z,4.40
2019-01-19T08:52:42.775Z,4.36
2019-01-19T08:53:42.760Z,4.37
2019-01-19T08:54:42.747Z,4.55
2019-01-19T08:55:42.742Z,4.58
2019-01-19T08:56:42.728Z,4.75
2019-01-19T08:57:42.717Z,4.86
2019-01-19T08:58:42.715Z,4.91
2019-01-19T08:59:42.689Z,4.96
2019-01-19T09:00:42.692Z,5.05
2019-01-19T09:01:42.676Z,5.14
2019-01-19T09:02:42.659Z,5.17
2019-01-19T09:03:42.649Z,5.23
2019-01-19T09:04:42.637Z,5.25
2019-01-19T09:05:42.637Z,5.31
2019-01-19T09:06:42.616Z,5.52
2019-01-19T09:07:42.608Z,5.50
2019-01-19T09:08:42.595Z,5.67
2019-01-19T09:09:42.591Z,5.74
2019-01-19T09:10:42.582Z,5.78
2019-01-19T09:11:42.561Z,6.06
2019-01-19T09:12:43.083Z,6.28
2019-01-19T09:13:42.544Z,6.29
2019-01-19T09:14:42.540Z,6.48
2019-01-19T09:15:42.534Z,6.48
2019-01-19T09:16:42.509Z,6.61
2019-01-19T09:17:42.498Z,6.47
2019-01-19T09:18:42.488Z,6.50
2019-01-19T09:19:42.483Z,6.53
2019-01-19T09:20:42.500Z,6.54
2019-01-19T09:21:42.459Z,6.43
2019-01-19T09:22:42.445Z,6.35
2019-01-19T09:23:42.442Z,6.32
2019-01-19T09:24:42.424Z,6.30
2019-01-19T09:25:42.414Z,6.54
2019-01-19T09:26:42.417Z,6.76
2019-01-19T09:27:42.393Z,6.94
2019-01-19T09:28:42.383Z,7.16
2019-01-19T09:29:42.371Z,7.32
2019-01-19T09:30:42.367Z,7.49
2019-01-19T09:31:42.363Z,7.49
2019-01-19T09:32:42.348Z,7.47
2019-01-19T09:33:42.387Z,7.38
2019-01-19T09:34:42.321Z,7.32
2019-01-19T09:35:42.307Z,7.20
2019-01-19T09:36:42.316Z,7.04
2019-01-19T09:37:42.289Z,6.94
2019-01-19T09:38:42.275Z,6.84
2019-01-19T09:39:42.267Z,6.79
2019-01-19T09:40:42.255Z,6.81
2019-01-19T09:41:42.259Z,6.80
2019-01-19T09:42:42.235Z,6.79
2019-01-19T09:43:42.223Z,6.87
2019-01-19T09:44:42.212Z,6.90
2019-01-19T09:45:42.218Z,6.94
2019-01-19T09:46:42.202Z,6.86
2019-01-19T09:47:42.180Z,6.90
2019-01-19T09:48:42.176Z,6.87
2019-01-19T09:49:42.160Z,6.80
2019-01-19T09:50:42.153Z,6.71
2019-01-19T09:51:42.161Z,6.72
2019-01-19T09:52:42.131Z,6.68
2019-01-19T09:53:42.118Z,6.79
2019-01-19T09:54:42.109Z,6.76
2019-01-19T09:55:42.102Z,6.81
2019-01-19T09:56:42.120Z,6.80
2019-01-19T09:57:42.083Z,6.90
2019-01-19T09:58:42.064Z,6.95
2019-01-19T09:59:42.056Z,6.98
2019-01-19T10:00:45.741Z,7.01
2019-01-19T10:01:42.045Z,6.90
2019-01-19T10:02:42.057Z,6.86
2019-01-19T10:03:42.060Z,6.80
2019-01-19T10:04:41.999Z,6.73
2019-01-19T10:05:42.005Z,6.62
2019-01-19T10:06:41.997Z,6.66
2019-01-19T10:07:48.223Z,6.61
2019-01-19T10:08:42.960Z,6.63
2019-01-19T10:09:41.949Z,6.77
2019-01-19T10:10:41.938Z,6.68
2019-01-19T10:11:41.942Z,6.65
2019-01-19T10:12:41.926Z,6.66
2019-01-19T10:13:41.914Z,6.51
2019-01-19T10:14:41.903Z,6.43
2019-01-19T10:15:41.923Z,6.33
2019-01-19T10:16:41.896Z,6.35
2019-01-19T10:17:41.865Z,6.32
2019-01-19T10:18:41.856Z,6.25
2019-01-19T10:19:41.850Z,6.19
2019-01-19T10:20:41.842Z,6.11
2019-01-19T10:21:41.838Z,6.07
2019-01-19T10:22:41.818Z,5.93
2019-01-19T10:23:41.803Z,5.83
2019-01-19T10:24:41.801Z,5.86
2019-01-19T10:25:41.804Z,5.82
2019-01-19T10:26:41.786Z,5.75
2019-01-19T10:27:41.765Z,5.77
2019-01-19T10:28:41.754Z,5.81
2019-01-19T10:29:41.741Z,5.75
2019-01-19T10:30:41.743Z,5.78
2019-01-19T10:31:41.739Z,5.78
2019-01-19T10:32:41.713Z,5.83
2019-01-19T10:33:41.700Z,5.81
2019-01-19T10:34:41.693Z,5.78
2019-01-19T10:35:41.680Z,5.81
2019-01-19T10:36:41.680Z,5.88
2019-01-19T10:37:41.656Z,5.81
2019-01-19T10:38:41.649Z,5.83
2019-01-19T10:39:41.633Z,5.77
2019-01-19T10:40:41.647Z,5.73
2019-01-19T10:41:41.645Z,5.70
2019-01-19T10:42:41.737Z,5.78
2019-01-19T10:43:41.595Z,5.75
2019-01-19T10:44:41.582Z,5.70
2019-01-19T10:45:41.571Z,5.60
2019-01-19T10:46:41.558Z,5.63
2019-01-19T10:47:41.566Z,5.57
2019-01-19T10:48:41.547Z,5.50
2019-01-19T10:49:41.534Z,5.50
2019-01-19T10:50:41.524Z,5.52
2019-01-19T10:51:41.508Z,5.48
2019-01-19T10:52:41.510Z,5.48
2019-01-19T10:53:41.489Z,5.43
2019-01-19T10:54:41.483Z,5.41
2019-01-19T10:55:41.471Z,5.45
2019-01-19T10:56:41.456Z,5.41
2019-01-19T10:57:41.455Z,5.32
2019-01-19T10:58:41.445Z,5.43
2019-01-19T10:59:41.427Z,5.34
2019-01-19T11:00:41.416Z,5.32
2019-01-19T11:01:41.402Z,5.30
2019-01-19T11:02:41.405Z,5.31
2019-01-19T11:03:41.392Z,5.20
2019-01-19T11:04:41.375Z,5.17
2019-01-19T11:05:41.365Z,5.19
2019-01-19T11:06:41.353Z,5.10
2019-01-19T11:07:41.353Z,5.10
2019-01-19T11:08:41.327Z,5.07
2019-01-19T11:09:41.319Z,5.07
2019-01-19T11:10:41.313Z,4.99
2019-01-19T11:11:41.307Z,5.01
2019-01-19T11:12:41.313Z,5.04
2019-01-19T11:13:41.278Z,4.99
2019-01-19T11:14:41.270Z,4.95
2019-01-19T11:15:41.256Z,4.95
2019-01-19T11:16:41.247Z,5.02
2019-01-19T11:17:41.254Z,4.95
2019-01-19T11:18:41.232Z,5.01
2019-01-19T11:19:41.215Z,5.09
2019-01-19T11:20:41.205Z,4.95
2019-01-19T11:21:41.191Z,4.98
2019-01-19T11:22:41.245Z,4.92
2019-01-19T11:23:41.188Z,4.96
2019-01-19T11:24:41.159Z,5.04
2019-01-19T11:25:41.155Z,5.04
2019-01-19T11:26:41.143Z,5.07
2019-01-19T11:27:41.146Z,5.07
2019-01-19T11:28:41.129Z,4.99
2019-01-19T11:29:41.107Z,5.04
2019-01-19T11:30:41.095Z,5.12
2019-01-19T11:31:41.084Z,5.07
2019-01-19T11:32:44.529Z,4.95
2019-01-19T11:33:41.064Z,4.91
2019-01-19T11:34:41.054Z,4.95
2019-01-19T11:35:41.045Z,4.94
2019-01-19T11:36:41.033Z,4.86
2019-01-19T11:37:41.034Z,4.89
2019-01-19T11:38:41.012Z,4.79
2019-01-19T11:39:41.038Z,4.80
2019-01-19T11:40:40.994Z,4.79
2019-01-19T11:41:40.985Z,4.86
2019-01-19T11:42:40.987Z,4.83
2019-01-19T11:43:40.959Z,4.91
2019-01-19T11:44:40.949Z,4.89
2019-01-19T11:45:40.939Z,4.92
2019-01-19T11:46:40.982Z,4.80
2019-01-19T11:47:40.933Z,4.76
2019-01-19T11:48:40.906Z,4.80
2019-01-19T11:49:40.892Z,4.77
2019-01-19T11:50:40.883Z,4.67
2019-01-19T11:51:40.879Z,4.70
2019-01-19T11:52:40.880Z,4.69
2019-01-19T11:53:40.854Z,4.76
2019-01-19T11:54:40.844Z,4.76
2019-01-19T11:55:40.840Z,4.84
2019-01-19T11:56:40.822Z,4.72
2019-01-19T11:57:40.810Z,4.70
2019-01-19T11:58:40.811Z,4.61
2019-01-19T11:59:40.791Z,4.73
2019-01-19T12:00:40.780Z,4.70
2019-01-19T12:01:40.783Z,4.72
2019-01-19T12:02:40.763Z,4.76
2019-01-19T12:03:40.759Z,4.61
2019-01-19T12:04:40.742Z,4.62
2019-01-19T12:05:40.756Z,4.67
2019-01-19T12:06:40.727Z,4.67
2019-01-19T12:07:40.706Z,4.76
2019-01-19T12:08:40.704Z,4.70
2019-01-19T12:09:41.254Z,4.64
2019-01-19T12:10:40.674Z,4.57
2019-01-19T12:11:40.668Z,4.58
2019-01-19T12:12:40.652Z,4.55
2019-01-19T12:13:40.661Z,4.61
2019-01-19T12:14:40.639Z,4.62
2019-01-19T12:15:40.620Z,4.64
2019-01-19T12:16:40.607Z,4.64
2019-01-19T12:17:40.611Z,4.72
2019-01-19T12:18:40.599Z,4.67
2019-01-19T12:19:40.578Z,4.62
2019-01-19T12:20:40.575Z,4.73
2019-01-19T12:21:40.559Z,4.75
2019-01-19T12:22:40.551Z,4.57
2019-01-19T12:23:40.558Z,4.62
2019-01-19T12:24:40.523Z,4.62
2019-01-19T12:25:40.515Z,4.62
2019-01-19T12:26:40.504Z,4.69
2019-01-19T12:27:40.497Z,4.58
2019-01-19T12:28:40.509Z,4.70
2019-01-19T12:29:40.489Z,4.72
2019-01-19T12:30:40.462Z,4.67
2019-01-19T12:31:40.458Z,4.65
2019-01-19T12:32:40.442Z,4.58
2019-01-19T12:33:40.450Z,4.62
2019-01-19T12:34:40.415Z,4.58
2019-01-19T12:35:40.404Z,4.61
2019-01-19T12:36:40.394Z,4.69
2019-01-19T12:37:40.382Z,4.69
2019-01-19T12:38:40.397Z,4.67
2019-01-19T12:39:40.366Z,4.62
2019-01-19T12:40:40.373Z,4.72
2019-01-19T12:41:40.351Z,4.55
2019-01-19T12:42:40.341Z,4.57
2019-01-19T12:43:40.333Z,4.52
2019-01-19T12:44:40.320Z,4.51
2019-01-19T12:45:40.304Z,4.52
2019-01-19T12:46:40.296Z,4.50
2019-01-19T12:47:40.298Z,4.50
2019-01-19T12:48:40.284Z,4.54
2019-01-19T12:49:40.269Z,4.46
2019-01-19T12:50:40.253Z,4.54
2019-01-19T12:51:40.243Z,4.43
2019-01-19T12:52:40.232Z,4.42
2019-01-19T12:53:40.229Z,4.40
2019-01-19T12:54:40.208Z,4.33
2019-01-19T12:55:40.196Z,4.36
2019-01-19T12:56:40.188Z,4.33
2019-01-19T12:57:40.173Z,4.28
2019-01-19T12:58:40.170Z,4.14
2019-01-19T12:59:40.149Z,4.24
2019-01-19T13:00:40.139Z,4.25
2019-01-19T13:01:40.127Z,4.28
2019-01-19T13:02:40.124Z,4.24
2019-01-19T13:03:40.117Z,4.25
2019-01-19T13:04:40.099Z,4.21
2019-01-19T13:05:40.102Z,4.24
2019-01-19T13:06:40.075Z,4.29
2019-01-19T13:07:40.064Z,4.22
2019-01-19T13:08:40.354Z,4.28
2019-01-19T13:09:40.044Z,4.26
2019-01-19T13:10:40.031Z,4.22
2019-01-19T13:11:40.028Z,4.19
2019-01-19T13:12:40.034Z,4.22
2019-01-19T13:13:40.000Z,4.34
2019-01-19T13:14:40.002Z,4.19
2019-01-19T13:15:39.975Z,4.22
2019-01-19T13:16:39.965Z,4.19
2019-01-19T13:17:39.961Z,4.07
2019-01-19T13:18:39.942Z,4.19